sensor_id;sensor_type;location;lat;lon;timestamp;temperature;humidity
35445;DHT22;21562;49.476;6.086;2023-03-03T00:01:26;7.10;99.90
35445;DHT22;21562;49.476;6.086;2023-03-03T00:03:53;7.10;99.90
35445;DHT22;21562;49.476;6.086;2023-03-03T00:06:19;7.10;99.90
35445;DHT22;21562;49.476;6.086;2023-03-03T00:08:45;7.20;99.90
35445;DHT22;21562;49.476;6.086;2023-03-03T00:11:11;6.70;99.90
35445;DHT22;21562;49.476;6.086;2023-03-03T00:13:49;5.60;99.90
35445;DHT22;21562;49.476;6.086;2023-03-03T00:16:23;5.50;99.90
35445;DHT22;21562;49.476;6.086;2023-03-03T00:18:49;5.60;99.90
35445;DHT22;21562;49.476;6.086;2023-03-03T00:23:47;6.10;99.90
35445;DHT22;21562;49.476;6.086;2023-03-03T00:26:34;6.30;99.90
35445;DHT22;21562;49.476;6.086;2023-03-03T00:29:02;6.50;99.90
35445;DHT22;21562;49.476;6.086;2023-03-03T00:31:47;6.40;99.90
35445;DHT22;21562;49.476;6.086;2023-03-03T00:36:42;6.50;99.90
35445;DHT22;21562;49.476;6.086;2023-03-03T00:39:26;6.50;99.90
35445;DHT22;21562;49.476;6.086;2023-03-03T00:41:54;6.60;99.90
35445;DHT22;21562;49.476;6.086;2023-03-03T00:44:44;6.60;99.90
35445;DHT22;21562;49.476;6.086;2023-03-03T00:49:39;6.70;99.90
35445;DHT22;21562;49.476;6.086;2023-03-03T00:52:16;6.70;99.90
35445;DHT22;21562;49.476;6.086;2023-03-03T00:54:42;6.60;99.90
35445;DHT22;21562;49.476;6.086;2023-03-03T00:57:09;6.50;99.90
35445;DHT22;21562;49.476;6.086;2023-03-03T00:59:37;6.00;99.90
35445;DHT22;21562;49.476;6.086;2023-03-03T01:02:03;6.00;99.90
35445;DHT22;21562;49.476;6.086;2023-03-03T01:04:28;6.20;99.90
35445;DHT22;21562;49.476;6.086;2023-03-03T01:06:54;6.10;99.90
35445;DHT22;21562;49.476;6.086;2023-03-03T01:09:20;5.50;99.90
35445;DHT22;21562;49.476;6.086;2023-03-03T01:11:46;5.70;99.90
35445;DHT22;21562;49.476;6.086;2023-03-03T01:14:11;5.80;99.90
35445;DHT22;21562;49.476;6.086;2023-03-03T01:16:37;5.90;99.90
35445;DHT22;21562;49.476;6.086;2023-03-03T01:19:02;6.00;99.90
35445;DHT22;21562;49.476;6.086;2023-03-03T01:21:28;6.10;99.90
35445;DHT22;21562;49.476;6.086;2023-03-03T01:23:54;6.10;99.90
35445;DHT22;21562;49.476;6.086;2023-03-03T01:26:19;6.10;99.90
35445;DHT22;21562;49.476;6.086;2023-03-03T01:28:45;6.00;99.90
35445;DHT22;21562;49.476;6.086;2023-03-03T01:31:11;6.10;99.90
35445;DHT22;21562;49.476;6.086;2023-03-03T01:33:37;6.20;99.90
35445;DHT22;21562;49.476;6.086;2023-03-03T01:36:03;6.30;99.90
35445;DHT22;21562;49.476;6.086;2023-03-03T01:38:29;6.20;99.90
35445;DHT22;21562;49.476;6.086;2023-03-03T01:40:56;6.30;99.90
35445;DHT22;21562;49.476;6.086;2023-03-03T01:43:25;6.20;99.90
35445;DHT22;21562;49.476;6.086;2023-03-03T01:53:27;6.20;99.90
35445;DHT22;21562;49.476;6.086;2023-03-03T01:55:54;6.20;99.90
35445;DHT22;21562;49.476;6.086;2023-03-03T01:58:36;6.20;99.90
35445;DHT22;21562;49.476;6.086;2023-03-03T02:01:08;6.20;99.90
35445;DHT22;21562;49.476;6.086;2023-03-03T02:03:35;6.10;99.90
35445;DHT22;21562;49.476;6.086;2023-03-03T02:06:07;6.00;99.90
35445;DHT22;21562;49.476;6.086;2023-03-03T02:08:45;6.00;99.90
35445;DHT22;21562;49.476;6.086;2023-03-03T02:11:14;6.00;99.90
35445;DHT22;21562;49.476;6.086;2023-03-03T02:13:40;5.80;99.90
35445;DHT22;21562;49.476;6.086;2023-03-03T02:16:06;5.70;99.90
35445;DHT22;21562;49.476;6.086;2023-03-03T02:18:32;5.60;99.90
35445;DHT22;21562;49.476;6.086;2023-03-03T02:21:18;5.40;99.90
35445;DHT22;21562;49.476;6.086;2023-03-03T02:24:06;5.50;99.90
35445;DHT22;21562;49.476;6.086;2023-03-03T02:26:36;5.60;99.90
35445;DHT22;21562;49.476;6.086;2023-03-03T02:29:03;5.70;99.90
35445;DHT22;21562;49.476;6.086;2023-03-03T02:31:30;5.70;99.90
35445;DHT22;21562;49.476;6.086;2023-03-03T02:33:56;5.00;99.90
35445;DHT22;21562;49.476;6.086;2023-03-03T02:36:24;5.20;99.90
35445;DHT22;21562;49.476;6.086;2023-03-03T02:39:22;5.30;99.90
35445;DHT22;21562;49.476;6.086;2023-03-03T02:44:26;5.30;99.90
35445;DHT22;21562;49.476;6.086;2023-03-03T02:46:53;5.40;99.90
35445;DHT22;21562;49.476;6.086;2023-03-03T02:49:23;5.40;99.90
35445;DHT22;21562;49.476;6.086;2023-03-03T02:51:49;5.20;99.90
35445;DHT22;21562;49.476;6.086;2023-03-03T02:54:16;5.20;99.90
35445;DHT22;21562;49.476;6.086;2023-03-03T02:56:42;4.50;99.90
35445;DHT22;21562;49.476;6.086;2023-03-03T02:59:08;4.50;99.90
35445;DHT22;21562;49.476;6.086;2023-03-03T03:01:34;4.70;99.90
35445;DHT22;21562;49.476;6.086;2023-03-03T03:04:08;5.00;99.90
35445;DHT22;21562;49.476;6.086;2023-03-03T03:06:34;4.80;99.90
35445;DHT22;21562;49.476;6.086;2023-03-03T03:09:00;4.40;99.90
35445;DHT22;21562;49.476;6.086;2023-03-03T03:11:26;4.70;99.90
35445;DHT22;21562;49.476;6.086;2023-03-03T03:13:51;5.00;99.90
35445;DHT22;21562;49.476;6.086;2023-03-03T03:16:18;5.00;99.90
35445;DHT22;21562;49.476;6.086;2023-03-03T03:18:43;5.20;99.90
35445;DHT22;21562;49.476;6.086;2023-03-03T03:21:11;5.20;99.90
35445;DHT22;21562;49.476;6.086;2023-03-03T03:23:37;5.30;99.90
35445;DHT22;21562;49.476;6.086;2023-03-03T03:26:04;5.40;99.90
35445;DHT22;21562;49.476;6.086;2023-03-03T03:28:29;5.50;99.90
35445;DHT22;21562;49.476;6.086;2023-03-03T03:30:55;5.50;99.90
35445;DHT22;21562;49.476;6.086;2023-03-03T03:33:21;5.40;99.90
35445;DHT22;21562;49.476;6.086;2023-03-03T03:35:47;5.50;99.90
35445;DHT22;21562;49.476;6.086;2023-03-03T03:38:13;5.30;99.90
35445;DHT22;21562;49.476;6.086;2023-03-03T03:40:39;5.30;99.90
35445;DHT22;21562;49.476;6.086;2023-03-03T03:43:05;5.40;99.90
35445;DHT22;21562;49.476;6.086;2023-03-03T03:45:31;5.30;99.90
35445;DHT22;21562;49.476;6.086;2023-03-03T03:47:57;5.40;99.90
35445;DHT22;21562;49.476;6.086;2023-03-03T03:50:22;5.10;99.90
35445;DHT22;21562;49.476;6.086;2023-03-03T03:52:48;5.10;99.90
35445;DHT22;21562;49.476;6.086;2023-03-03T03:55:14;5.20;99.90
35445;DHT22;21562;49.476;6.086;2023-03-03T03:57:40;5.30;99.90
35445;DHT22;21562;49.476;6.086;2023-03-03T04:00:07;5.30;99.90
35445;DHT22;21562;49.476;6.086;2023-03-03T04:02:34;5.10;99.90
35445;DHT22;21562;49.476;6.086;2023-03-03T04:05:00;5.10;99.90
35445;DHT22;21562;49.476;6.086;2023-03-03T04:07:26;5.10;99.90
35445;DHT22;21562;49.476;6.086;2023-03-03T04:09:51;4.90;99.90
35445;DHT22;21562;49.476;6.086;2023-03-03T04:12:17;4.90;99.90
35445;DHT22;21562;49.476;6.086;2023-03-03T04:14:43;5.00;99.90
35445;DHT22;21562;49.476;6.086;2023-03-03T04:17:18;5.10;99.90
35445;DHT22;21562;49.476;6.086;2023-03-03T04:19:44;4.70;99.90
35445;DHT22;21562;49.476;6.086;2023-03-03T04:22:10;4.70;99.90
35445;DHT22;21562;49.476;6.086;2023-03-03T04:24:37;4.80;99.90
35445;DHT22;21562;49.476;6.086;2023-03-03T04:27:03;4.90;99.90
35445;DHT22;21562;49.476;6.086;2023-03-03T04:29:28;4.80;99.90
35445;DHT22;21562;49.476;6.086;2023-03-03T04:31:54;4.70;99.90
35445;DHT22;21562;49.476;6.086;2023-03-03T04:34:20;4.60;99.90
35445;DHT22;21562;49.476;6.086;2023-03-03T04:36:45;4.60;99.90
35445;DHT22;21562;49.476;6.086;2023-03-03T04:39:11;4.70;99.90
35445;DHT22;21562;49.476;6.086;2023-03-03T04:41:37;4.40;99.90
35445;DHT22;21562;49.476;6.086;2023-03-03T04:44:02;4.60;99.90
35445;DHT22;21562;49.476;6.086;2023-03-03T04:46:28;4.40;99.90
35445;DHT22;21562;49.476;6.086;2023-03-03T04:48:54;4.40;99.90
35445;DHT22;21562;49.476;6.086;2023-03-03T04:51:19;4.60;99.90
35445;DHT22;21562;49.476;6.086;2023-03-03T04:53:45;4.60;99.90
35445;DHT22;21562;49.476;6.086;2023-03-03T04:56:11;4.70;99.90
35445;DHT22;21562;49.476;6.086;2023-03-03T04:58:36;4.70;99.90
35445;DHT22;21562;49.476;6.086;2023-03-03T05:01:02;4.70;99.90
35445;DHT22;21562;49.476;6.086;2023-03-03T05:03:28;4.40;99.90
35445;DHT22;21562;49.476;6.086;2023-03-03T05:05:53;4.50;99.90
35445;DHT22;21562;49.476;6.086;2023-03-03T05:08:19;4.50;99.90
35445;DHT22;21562;49.476;6.086;2023-03-03T05:10:45;3.80;99.90
35445;DHT22;21562;49.476;6.086;2023-03-03T05:13:10;3.80;99.90
35445;DHT22;21562;49.476;6.086;2023-03-03T05:15:39;3.90;99.90
35445;DHT22;21562;49.476;6.086;2023-03-03T05:18:05;3.90;99.90
35445;DHT22;21562;49.476;6.086;2023-03-03T05:20:30;4.10;99.90
35445;DHT22;21562;49.476;6.086;2023-03-03T05:22:56;4.30;99.90
35445;DHT22;21562;49.476;6.086;2023-03-03T05:25:24;4.40;99.90
35445;DHT22;21562;49.476;6.086;2023-03-03T05:27:50;4.60;99.90
35445;DHT22;21562;49.476;6.086;2023-03-03T05:30:15;4.70;99.90
35445;DHT22;21562;49.476;6.086;2023-03-03T05:32:41;4.60;99.90
35445;DHT22;21562;49.476;6.086;2023-03-03T05:35:07;4.70;99.90
35445;DHT22;21562;49.476;6.086;2023-03-03T05:37:33;4.70;99.90
35445;DHT22;21562;49.476;6.086;2023-03-03T05:39:58;4.70;99.90
35445;DHT22;21562;49.476;6.086;2023-03-03T05:42:24;4.80;99.90
35445;DHT22;21562;49.476;6.086;2023-03-03T05:44:49;4.70;99.90
35445;DHT22;21562;49.476;6.086;2023-03-03T05:47:15;4.90;99.90
35445;DHT22;21562;49.476;6.086;2023-03-03T05:49:41;4.80;99.90
35445;DHT22;21562;49.476;6.086;2023-03-03T05:52:06;4.80;99.90
35445;DHT22;21562;49.476;6.086;2023-03-03T05:54:33;4.80;99.90
35445;DHT22;21562;49.476;6.086;2023-03-03T05:56:59;4.80;99.90
35445;DHT22;21562;49.476;6.086;2023-03-03T05:59:25;4.80;99.90
35445;DHT22;21562;49.476;6.086;2023-03-03T06:01:50;4.70;99.90
35445;DHT22;21562;49.476;6.086;2023-03-03T06:04:16;4.70;99.90
35445;DHT22;21562;49.476;6.086;2023-03-03T06:06:41;4.70;99.90
35445;DHT22;21562;49.476;6.086;2023-03-03T06:09:07;4.70;99.90
35445;DHT22;21562;49.476;6.086;2023-03-03T06:11:33;4.80;99.90
35445;DHT22;21562;49.476;6.086;2023-03-03T06:13:58;4.70;99.90
35445;DHT22;21562;49.476;6.086;2023-03-03T06:16:24;4.80;99.90
35445;DHT22;21562;49.476;6.086;2023-03-03T06:18:50;4.80;99.90
35445;DHT22;21562;49.476;6.086;2023-03-03T06:21:16;4.90;99.90
35445;DHT22;21562;49.476;6.086;2023-03-03T06:23:41;4.90;99.90
35445;DHT22;21562;49.476;6.086;2023-03-03T06:26:07;4.70;99.90
35445;DHT22;21562;49.476;6.086;2023-03-03T06:28:33;4.60;99.90
35445;DHT22;21562;49.476;6.086;2023-03-03T06:30:59;4.60;99.90
35445;DHT22;21562;49.476;6.086;2023-03-03T06:33:24;4.60;99.90
35445;DHT22;21562;49.476;6.086;2023-03-03T06:35:51;4.60;99.90
35445;DHT22;21562;49.476;6.086;2023-03-03T06:38:17;4.70;99.90
35445;DHT22;21562;49.476;6.086;2023-03-03T06:40:44;4.60;99.90
35445;DHT22;21562;49.476;6.086;2023-03-03T06:43:09;4.50;99.90
35445;DHT22;21562;49.476;6.086;2023-03-03T06:45:35;4.20;99.90
35445;DHT22;21562;49.476;6.086;2023-03-03T06:48:00;4.30;99.90
35445;DHT22;21562;49.476;6.086;2023-03-03T06:50:26;4.30;99.90
35445;DHT22;21562;49.476;6.086;2023-03-03T06:53:18;4.30;99.90
35445;DHT22;21562;49.476;6.086;2023-03-03T06:55:44;4.50;99.90
35445;DHT22;21562;49.476;6.086;2023-03-03T06:58:19;4.60;99.90
35445;DHT22;21562;49.476;6.086;2023-03-03T07:00:53;4.80;99.90
35445;DHT22;21562;49.476;6.086;2023-03-03T07:03:25;4.80;99.90
35445;DHT22;21562;49.476;6.086;2023-03-03T07:05:53;4.80;99.90
35445;DHT22;21562;49.476;6.086;2023-03-03T07:08:21;4.70;99.90
35445;DHT22;21562;49.476;6.086;2023-03-03T07:10:48;4.50;99.90
35445;DHT22;21562;49.476;6.086;2023-03-03T07:13:21;4.50;99.90
35445;DHT22;21562;49.476;6.086;2023-03-03T07:15:49;4.70;99.90
35445;DHT22;21562;49.476;6.086;2023-03-03T07:18:29;4.90;99.90
35445;DHT22;21562;49.476;6.086;2023-03-03T07:20:58;5.70;99.90
35445;DHT22;21562;49.476;6.086;2023-03-03T07:23:27;6.00;99.90
35445;DHT22;21562;49.476;6.086;2023-03-03T07:25:55;6.10;99.90
35445;DHT22;21562;49.476;6.086;2023-03-03T07:28:28;6.00;99.90
35445;DHT22;21562;49.476;6.086;2023-03-03T07:30:55;6.00;99.90
35445;DHT22;21562;49.476;6.086;2023-03-03T07:35:51;6.20;99.90
35445;DHT22;21562;49.476;6.086;2023-03-03T07:38:34;6.30;99.90
35445;DHT22;21562;49.476;6.086;2023-03-03T07:41:02;6.40;99.90
35445;DHT22;21562;49.476;6.086;2023-03-03T07:43:49;6.30;99.90
35445;DHT22;21562;49.476;6.086;2023-03-03T07:49:29;6.30;99.90
35445;DHT22;21562;49.476;6.086;2023-03-03T07:51:58;6.00;99.90
35445;DHT22;21562;49.476;6.086;2023-03-03T07:54:42;6.00;99.90
35445;DHT22;21562;49.476;6.086;2023-03-03T07:59:50;5.80;99.90
35445;DHT22;21562;49.476;6.086;2023-03-03T08:05:30;5.90;99.90
35445;DHT22;21562;49.476;6.086;2023-03-03T08:10:57;5.70;99.90
35445;DHT22;21562;49.476;6.086;2023-03-03T08:13:27;5.60;99.90
35445;DHT22;21562;49.476;6.086;2023-03-03T08:21:16;5.20;99.90
35445;DHT22;21562;49.476;6.086;2023-03-03T08:23:43;5.10;99.90
35445;DHT22;21562;49.476;6.086;2023-03-03T08:26:09;5.20;99.90
35445;DHT22;21562;49.476;6.086;2023-03-03T08:28:37;5.30;99.90
35445;DHT22;21562;49.476;6.086;2023-03-03T08:31:03;5.50;99.90
35445;DHT22;21562;49.476;6.086;2023-03-03T08:33:28;5.70;99.90
35445;DHT22;21562;49.476;6.086;2023-03-03T08:35:54;5.90;99.90
35445;DHT22;21562;49.476;6.086;2023-03-03T08:38:20;5.60;99.90
35445;DHT22;21562;49.476;6.086;2023-03-03T08:40:47;5.60;99.90
35445;DHT22;21562;49.476;6.086;2023-03-03T08:43:14;5.70;99.90
35445;DHT22;21562;49.476;6.086;2023-03-03T08:45:48;5.70;99.90
35445;DHT22;21562;49.476;6.086;2023-03-03T08:48:15;5.90;99.90
35445;DHT22;21562;49.476;6.086;2023-03-03T08:50:42;5.90;99.90
35445;DHT22;21562;49.476;6.086;2023-03-03T08:53:09;5.60;99.90
35445;DHT22;21562;49.476;6.086;2023-03-03T08:55:35;5.70;99.90
35445;DHT22;21562;49.476;6.086;2023-03-03T08:58:01;6.00;99.90
35445;DHT22;21562;49.476;6.086;2023-03-03T09:00:26;6.10;99.90
35445;DHT22;21562;49.476;6.086;2023-03-03T09:02:52;6.30;99.90
35445;DHT22;21562;49.476;6.086;2023-03-03T09:05:20;6.40;99.90
35445;DHT22;21562;49.476;6.086;2023-03-03T09:07:46;6.40;99.90
35445;DHT22;21562;49.476;6.086;2023-03-03T09:10:15;6.80;99.90
35445;DHT22;21562;49.476;6.086;2023-03-03T09:12:44;7.00;99.90
35445;DHT22;21562;49.476;6.086;2023-03-03T09:15:25;7.50;99.90
35445;DHT22;21562;49.476;6.086;2023-03-03T09:17:54;7.60;99.90
35445;DHT22;21562;49.476;6.086;2023-03-03T09:20:33;7.70;99.90
35445;DHT22;21562;49.476;6.086;2023-03-03T09:25:49;7.20;99.90
35445;DHT22;21562;49.476;6.086;2023-03-03T09:28:33;7.20;99.90
35445;DHT22;21562;49.476;6.086;2023-03-03T09:31:00;7.30;99.90
35445;DHT22;21562;49.476;6.086;2023-03-03T09:33:30;7.60;99.90
35445;DHT22;21562;49.476;6.086;2023-03-03T09:38:46;8.30;99.90
35445;DHT22;21562;49.476;6.086;2023-03-03T09:52:22;8.50;99.90
35445;DHT22;21562;49.476;6.086;2023-03-03T10:06:01;9.30;99.90
35445;DHT22;21562;49.476;6.086;2023-03-03T10:08:41;9.90;99.90
35445;DHT22;21562;49.476;6.086;2023-03-03T10:11:25;10.20;99.90
35445;DHT22;21562;49.476;6.086;2023-03-03T10:14:02;10.50;99.90
35445;DHT22;21562;49.476;6.086;2023-03-03T10:16:45;10.60;99.90
35445;DHT22;21562;49.476;6.086;2023-03-03T10:19:36;10.40;99.90
35445;DHT22;21562;49.476;6.086;2023-03-03T10:22:23;10.60;99.90
35445;DHT22;21562;49.476;6.086;2023-03-03T10:33:22;10.10;99.90
35445;DHT22;21562;49.476;6.086;2023-03-03T10:36:11;9.80;99.90
35445;DHT22;21562;49.476;6.086;2023-03-03T10:39:20;10.00;99.90
35445;DHT22;21562;49.476;6.086;2023-03-03T10:47:36;10.80;99.90
35445;DHT22;21562;49.476;6.086;2023-03-03T10:58:44;12.60;95.30
35445;DHT22;21562;49.476;6.086;2023-03-03T11:01:22;12.40;96.40
35445;DHT22;21562;49.476;6.086;2023-03-03T11:09:14;12.60;95.40
35445;DHT22;21562;49.476;6.086;2023-03-03T11:21:19;11.70;96.70
35445;DHT22;21562;49.476;6.086;2023-03-03T11:37:28;11.00;96.90
35445;DHT22;21562;49.476;6.086;2023-03-03T11:40:25;11.10;96.40
35445;DHT22;21562;49.476;6.086;2023-03-03T11:43:18;11.30;96.20
35445;DHT22;21562;49.476;6.086;2023-03-03T11:46:12;11.50;95.00
35445;DHT22;21562;49.476;6.086;2023-03-03T11:51:35;11.30;94.70
35445;DHT22;21562;49.476;6.086;2023-03-03T11:54:26;11.60;94.70
35445;DHT22;21562;49.476;6.086;2023-03-03T11:57:16;12.10;94.70
35445;DHT22;21562;49.476;6.086;2023-03-03T12:02:32;12.30;93.50
35445;DHT22;21562;49.476;6.086;2023-03-03T12:05:13;12.00;93.60
35445;DHT22;21562;49.476;6.086;2023-03-03T12:16:27;12.80;92.70
35445;DHT22;21562;49.476;6.086;2023-03-03T12:35:56;12.40;94.80
35445;DHT22;21562;49.476;6.086;2023-03-03T12:41:31;12.10;95.40
35445;DHT22;21562;49.476;6.086;2023-03-03T12:44:13;12.20;95.70
35445;DHT22;21562;49.476;6.086;2023-03-03T12:49:18;12.60;94.70
35445;DHT22;21562;49.476;6.086;2023-03-03T12:54:38;12.60;95.00
35445;DHT22;21562;49.476;6.086;2023-03-03T13:03:20;12.10;95.30
35445;DHT22;21562;49.476;6.086;2023-03-03T13:05:59;12.10;94.80
35445;DHT22;21562;49.476;6.086;2023-03-03T13:08:50;12.00;94.90
35445;DHT22;21562;49.476;6.086;2023-03-03T13:16:48;12.30;94.30
35445;DHT22;21562;49.476;6.086;2023-03-03T13:19:26;12.60;94.60
35445;DHT22;21562;49.476;6.086;2023-03-03T13:22:09;13.10;93.60
35445;DHT22;21562;49.476;6.086;2023-03-03T13:24:50;12.50;93.80
35445;DHT22;21562;49.476;6.086;2023-03-03T13:27:20;12.80;94.40
35445;DHT22;21562;49.476;6.086;2023-03-03T13:30:15;13.20;93.80
35445;DHT22;21562;49.476;6.086;2023-03-03T13:37:55;13.80;91.70
35445;DHT22;21562;49.476;6.086;2023-03-03T13:40:26;13.90;91.60
35445;DHT22;21562;49.476;6.086;2023-03-03T13:43:25;14.50;91.00
35445;DHT22;21562;49.476;6.086;2023-03-03T13:59:53;13.70;89.20
35445;DHT22;21562;49.476;6.086;2023-03-03T14:05:12;14.00;86.90
35445;DHT22;21562;49.476;6.086;2023-03-03T14:07:57;13.90;87.10
35445;DHT22;21562;49.476;6.086;2023-03-03T14:10:30;14.30;86.40
35445;DHT22;21562;49.476;6.086;2023-03-03T14:13:02;14.60;85.80
35445;DHT22;21562;49.476;6.086;2023-03-03T14:15:47;13.50;85.60
35445;DHT22;21562;49.476;6.086;2023-03-03T14:18:40;14.00;86.80
35445;DHT22;21562;49.476;6.086;2023-03-03T14:21:35;14.50;85.30
35445;DHT22;21562;49.476;6.086;2023-03-03T14:24:06;15.10;84.50
35445;DHT22;21562;49.476;6.086;2023-03-03T14:26:55;15.70;82.10
35445;DHT22;21562;49.476;6.086;2023-03-03T14:31:54;15.70;79.10
35445;DHT22;21562;49.476;6.086;2023-03-03T14:34:39;15.80;79.60
35445;DHT22;21562;49.476;6.086;2023-03-03T14:37:20;15.70;79.00
35445;DHT22;21562;49.476;6.086;2023-03-03T14:47:55;15.30;75.50
35445;DHT22;21562;49.476;6.086;2023-03-03T14:50:39;14.90;77.00
35445;DHT22;21562;49.476;6.086;2023-03-03T14:53:12;15.20;77.00
35445;DHT22;21562;49.476;6.086;2023-03-03T14:55:41;15.40;77.10
35445;DHT22;21562;49.476;6.086;2023-03-03T15:03:46;15.70;73.30
35445;DHT22;21562;49.476;6.086;2023-03-03T15:06:28;15.90;74.40
35445;DHT22;21562;49.476;6.086;2023-03-03T15:08:54;16.50;72.70
35445;DHT22;21562;49.476;6.086;2023-03-03T15:11:27;16.70;72.30
35445;DHT22;21562;49.476;6.086;2023-03-03T15:14:13;17.20;71.90
35445;DHT22;21562;49.476;6.086;2023-03-03T15:16:39;17.40;70.40
35445;DHT22;21562;49.476;6.086;2023-03-03T15:28:11;17.40;66.90
35445;DHT22;21562;49.476;6.086;2023-03-03T15:31:00;16.60;66.70
35445;DHT22;21562;49.476;6.086;2023-03-03T15:33:37;16.80;67.10
35445;DHT22;21562;49.476;6.086;2023-03-03T15:42:06;17.10;66.60
35445;DHT22;21562;49.476;6.086;2023-03-03T15:44:55;17.00;66.10
35445;DHT22;21562;49.476;6.086;2023-03-03T15:53:11;17.40;63.70
35445;DHT22;21562;49.476;6.086;2023-03-03T16:04:15;17.10;62.30
35445;DHT22;21562;49.476;6.086;2023-03-03T16:07:04;17.30;61.70
35445;DHT22;21562;49.476;6.086;2023-03-03T16:09:55;16.60;61.80
35445;DHT22;21562;49.476;6.086;2023-03-03T16:18:16;15.80;61.50
35445;DHT22;21562;49.476;6.086;2023-03-03T16:20:51;15.60;62.50
35445;DHT22;21562;49.476;6.086;2023-03-03T16:26:12;15.80;62.70
35445;DHT22;21562;49.476;6.086;2023-03-03T16:36:53;15.90;62.90
35445;DHT22;21562;49.476;6.086;2023-03-03T16:39:40;15.60;64.20
35445;DHT22;21562;49.476;6.086;2023-03-03T16:53:47;15.50;64.90
35445;DHT22;21562;49.476;6.086;2023-03-03T16:55:57;15.40;65.00
35445;DHT22;21562;49.476;6.086;2023-03-03T17:06:53;14.90;66.30
35445;DHT22;21562;49.476;6.086;2023-03-03T17:21:43;14.50;67.60
35445;DHT22;21562;49.476;6.086;2023-03-03T17:27:14;14.30;67.90
35445;DHT22;21562;49.476;6.086;2023-03-03T17:29:49;14.40;67.90
35445;DHT22;21562;49.476;6.086;2023-03-03T17:40:47;14.40;67.60
35445;DHT22;21562;49.476;6.086;2023-03-03T17:46:48;14.40;67.60
35445;DHT22;21562;49.476;6.086;2023-03-03T17:52:07;14.20;67.50
35445;DHT22;21562;49.476;6.086;2023-03-03T18:06:10;13.90;68.60
35445;DHT22;21562;49.476;6.086;2023-03-03T18:12:03;13.60;69.00
35445;DHT22;21562;49.476;6.086;2023-03-03T18:23:41;12.30;73.40
35445;DHT22;21562;49.476;6.086;2023-03-03T18:34:29;10.90;80.50
35445;DHT22;21562;49.476;6.086;2023-03-03T18:37:44;10.80;81.90
35445;DHT22;21562;49.476;6.086;2023-03-03T18:39:48;10.60;83.20
35445;DHT22;21562;49.476;6.086;2023-03-03T18:44:50;11.00;83.20
35445;DHT22;21562;49.476;6.086;2023-03-03T18:47:16;11.30;83.00
35445;DHT22;21562;49.476;6.086;2023-03-03T18:55:55;11.50;83.90
35445;DHT22;21562;49.476;6.086;2023-03-03T18:58:38;11.50;83.80
35445;DHT22;21562;49.476;6.086;2023-03-03T19:04:19;11.30;84.90
35445;DHT22;21562;49.476;6.086;2023-03-03T19:09:19;11.20;85.50
35445;DHT22;21562;49.476;6.086;2023-03-03T19:11:49;11.10;86.10
35445;DHT22;21562;49.476;6.086;2023-03-03T19:16:51;10.70;87.60
35445;DHT22;21562;49.476;6.086;2023-03-03T19:19:21;10.40;89.00
35445;DHT22;21562;49.476;6.086;2023-03-03T19:21:50;10.30;89.80
35445;DHT22;21562;49.476;6.086;2023-03-03T19:24:35;10.40;90.00
35445;DHT22;21562;49.476;6.086;2023-03-03T19:32:29;10.20;91.20
35445;DHT22;21562;49.476;6.086;2023-03-03T19:35:44;10.20;91.20
35445;DHT22;21562;49.476;6.086;2023-03-03T19:38:06;10.10;91.50
35445;DHT22;21562;49.476;6.086;2023-03-03T19:40:46;10.10;91.40
35445;DHT22;21562;49.476;6.086;2023-03-03T19:49:17;10.40;91.50
35445;DHT22;21562;49.476;6.086;2023-03-03T19:55:03;9.70;93.40
35445;DHT22;21562;49.476;6.086;2023-03-03T20:03:12;9.30;94.90
35445;DHT22;21562;49.476;6.086;2023-03-03T20:06:00;9.20;95.10
35445;DHT22;21562;49.476;6.086;2023-03-03T20:09:29;9.10;95.80
35445;DHT22;21562;49.476;6.086;2023-03-03T20:11:58;9.00;95.70
35445;DHT22;21562;49.476;6.086;2023-03-03T20:14:41;9.10;95.40
35445;DHT22;21562;49.476;6.086;2023-03-03T20:23:16;9.10;95.50
35445;DHT22;21562;49.476;6.086;2023-03-03T20:25:48;9.10;95.50
35445;DHT22;21562;49.476;6.086;2023-03-03T20:56:50;8.70;94.00
35445;DHT22;21562;49.476;6.086;2023-03-03T20:59:23;8.70;94.10
35445;DHT22;21562;49.476;6.086;2023-03-03T21:04:38;8.30;95.20
35445;DHT22;21562;49.476;6.086;2023-03-03T21:07:04;8.30;95.50
35445;DHT22;21562;49.476;6.086;2023-03-03T21:11:58;8.50;95.10
35445;DHT22;21562;49.476;6.086;2023-03-03T21:14:33;8.40;94.30
35445;DHT22;21562;49.476;6.086;2023-03-03T21:17:09;8.40;95.20
35445;DHT22;21562;49.476;6.086;2023-03-03T21:19:35;8.40;95.20
35445;DHT22;21562;49.476;6.086;2023-03-03T21:22:02;8.40;94.70
35445;DHT22;21562;49.476;6.086;2023-03-03T21:24:49;8.30;94.90
35445;DHT22;21562;49.476;6.086;2023-03-03T21:27:30;8.10;95.90
35445;DHT22;21562;49.476;6.086;2023-03-03T21:32:49;7.80;96.20
35445;DHT22;21562;49.476;6.086;2023-03-03T21:35:17;7.60;96.10
35445;DHT22;21562;49.476;6.086;2023-03-03T21:37:53;7.60;96.10
35445;DHT22;21562;49.476;6.086;2023-03-03T21:40:24;7.40;96.80
35445;DHT22;21562;49.476;6.086;2023-03-03T21:42:52;7.30;97.90
35445;DHT22;21562;49.476;6.086;2023-03-03T21:45:18;7.30;97.20
35445;DHT22;21562;49.476;6.086;2023-03-03T21:47:48;7.30;96.90
35445;DHT22;21562;49.476;6.086;2023-03-03T21:50:14;7.50;97.70
35445;DHT22;21562;49.476;6.086;2023-03-03T21:52:40;7.40;97.00
35445;DHT22;21562;49.476;6.086;2023-03-03T21:55:06;7.40;97.20
35445;DHT22;21562;49.476;6.086;2023-03-03T21:57:32;7.20;97.70
35445;DHT22;21562;49.476;6.086;2023-03-03T22:00:00;7.40;98.30
35445;DHT22;21562;49.476;6.086;2023-03-03T22:02:26;7.30;98.10
35445;DHT22;21562;49.476;6.086;2023-03-03T22:04:51;7.10;98.70
35445;DHT22;21562;49.476;6.086;2023-03-03T22:07:17;7.00;99.90
35445;DHT22;21562;49.476;6.086;2023-03-03T22:09:43;7.00;99.60
35445;DHT22;21562;49.476;6.086;2023-03-03T22:12:08;6.90;99.90
35445;DHT22;21562;49.476;6.086;2023-03-03T22:14:34;7.00;99.90
35445;DHT22;21562;49.476;6.086;2023-03-03T22:16:59;7.10;99.70
35445;DHT22;21562;49.476;6.086;2023-03-03T22:19:25;7.10;99.30
35445;DHT22;21562;49.476;6.086;2023-03-03T22:21:51;7.30;99.70
35445;DHT22;21562;49.476;6.086;2023-03-03T22:24:17;7.10;99.70
35445;DHT22;21562;49.476;6.086;2023-03-03T22:26:43;6.60;99.90
35445;DHT22;21562;49.476;6.086;2023-03-03T22:29:09;6.30;99.90
35445;DHT22;21562;49.476;6.086;2023-03-03T22:31:34;6.40;99.90
35445;DHT22;21562;49.476;6.086;2023-03-03T22:34:00;6.50;99.90
35445;DHT22;21562;49.476;6.086;2023-03-03T22:36:26;6.60;99.90
35445;DHT22;21562;49.476;6.086;2023-03-03T22:38:51;6.60;99.90
35445;DHT22;21562;49.476;6.086;2023-03-03T22:41:17;6.70;99.90
35445;DHT22;21562;49.476;6.086;2023-03-03T22:43:43;6.60;99.90
35445;DHT22;21562;49.476;6.086;2023-03-03T22:46:09;6.70;99.90
35445;DHT22;21562;49.476;6.086;2023-03-03T22:48:36;6.80;99.90
35445;DHT22;21562;49.476;6.086;2023-03-03T22:51:01;6.70;99.90
35445;DHT22;21562;49.476;6.086;2023-03-03T22:53:27;6.60;99.90
35445;DHT22;21562;49.476;6.086;2023-03-03T22:55:53;6.50;99.90
35445;DHT22;21562;49.476;6.086;2023-03-03T22:58:19;6.30;99.90
35445;DHT22;21562;49.476;6.086;2023-03-03T23:00:46;6.30;99.90